Time;durP1;ratioP1;P1;durP2;ratioP2;P2;SDS_P1;SDS_P2;PMS_P1;PMS_P2;Temp;Humidity;BMP_temperature;BMP_pressure;BME280_temperature;BME280_humidity;BME280_pressure;Samples;Min_cycle;Max_cycle;Signal;HPM_P1;HPM_P2
2021/08/13 00:00:04;;;;;;;;;9.75;7.75;;;;;24.67;100.00;101816.78;5119751;27;45462;-66
2021/08/13 00:02:30;;;;;;;;;8.00;7.25;;;;;24.65;100.00;101816.00;5119311;27;45436;-65
2021/08/13 00:04:55;;;;;;;;;14.75;10.00;;;;;24.62;100.00;101821.50;5119554;27;45286;-66
2021/08/13 00:07:20;;;;;;;;;8.75;8.75;;;;;24.55;100.00;101818.31;5119661;27;45333;-68
2021/08/13 00:09:46;;;;;;;;;10.25;9.00;;;;;24.52;100.00;101812.28;5119327;27;45232;-66
2021/08/13 00:12:11;;;;;;;;;8.75;7.25;;;;;24.48;100.00;101810.75;5119078;27;45369;-66
2021/08/13 00:14:37;;;;;;;;;8.50;7.25;;;;;24.42;100.00;101810.13;5119260;27;45390;-67
2021/08/13 00:17:02;;;;;;;;;10.50;9.00;;;;;24.36;100.00;101813.13;5119396;27;45354;-66
2021/08/13 00:19:29;;;;;;;;;11.25;9.00;;;;;24.34;100.00;101825.69;5119410;27;45310;-66
2021/08/13 00:21:54;;;;;;;;;9.00;9.00;;;;;24.29;100.00;101818.91;5119085;27;45540;-66
2021/08/13 00:27:41;;;;;;;;;8.50;8.00;;;;;24.24;100.00;101831.59;5118041;27;45271;-66
2021/08/13 00:30:07;;;;;;;;;11.75;9.75;;;;;24.16;100.00;101821.31;5118999;27;45270;-66
2021/08/13 00:32:35;;;;;;;;;10.25;8.50;;;;;24.19;100.00;101838.97;5118528;27;46535;-66
2021/08/13 00:35:01;;;;;;;;;11.00;10.25;;;;;24.12;100.00;101836.63;5118818;27;45351;-66
2021/08/13 00:37:26;;;;;;;;;10.25;9.25;;;;;24.09;100.00;101844.81;5119088;27;45316;-66
2021/08/13 00:39:52;;;;;;;;;9.50;8.50;;;;;24.04;100.00;101836.19;5100338;27;45415;-66
2021/08/13 00:42:17;;;;;;;;;11.00;10.75;;;;;23.98;100.00;101827.63;5118439;27;46409;-66
2021/08/13 00:44:43;;;;;;;;;9.00;8.50;;;;;24.00;100.00;101834.66;5118792;27;45209;-66
2021/08/13 00:47:08;;;;;;;;;11.75;11.00;;;;;24.00;100.00;101837.31;5118976;27;45338;-66
2021/08/13 00:49:34;;;;;;;;;8.75;8.75;;;;;23.92;100.00;101828.84;5118674;27;45451;-66
2021/08/13 00:51:59;;;;;;;;;10.75;10.75;;;;;23.90;100.00;101828.06;5099775;27;46798;-66
2021/08/13 00:57:47;;;;;;;;;11.00;9.00;;;;;23.88;100.00;101837.94;5118496;27;45324;-66
2021/08/13 01:00:13;;;;;;;;;10.00;10.00;;;;;23.83;100.00;101835.53;5118885;27;45333;-65
2021/08/13 01:02:38;;;;;;;;;8.50;8.25;;;;;23.82;100.00;101843.59;5118282;27;45926;-65
2021/08/13 01:05:04;;;;;;;;;10.00;8.50;;;;;23.81;100.00;101839.22;5118626;27;45437;-66
2021/08/13 01:07:30;;;;;;;;;8.00;7.75;;;;;23.81;100.00;101844.56;5118538;27;45370;-66
2021/08/13 01:09:55;;;;;;;;;12.00;10.00;;;;;23.74;100.00;101825.31;5118562;27;45258;-66
2021/08/13 01:12:27;;;;;;;;;10.00;9.00;;;;;23.76;100.00;101827.91;5118335;27;46264;-66
2021/08/13 01:15:11;;;;;;;;;9.00;9.00;;;;;23.72;100.00;101842.34;5118634;27;45337;-66
2021/08/13 01:17:44;;;;;;;;;9.50;9.50;;;;;23.70;100.00;101847.75;5118557;27;45365;-66
2021/08/13 01:20:28;;;;;;;;;10.00;10.00;;;;;23.67;100.00;101852.38;5118660;27;45399;-66
2021/08/13 01:23:09;;;;;;;;;9.25;8.25;;;;;23.55;100.00;101840.53;5118286;27;46361;-66
2021/08/13 01:25:39;;;;;;;;;10.00;9.25;;;;;23.57;100.00;101846.69;5118253;27;45562;-66
2021/08/13 01:28:25;;;;;;;;;10.00;8.75;;;;;23.48;100.00;101829.28;5118100;27;45303;-66
2021/08/13 01:30:51;;;;;;;;;11.00;10.75;;;;;23.51;100.00;101831.78;5118264;27;45325;-66
2021/08/13 01:33:17;;;;;;;;;12.50;11.25;;;;;23.49;100.00;101830.16;5117726;27;46150;-66
2021/08/13 01:35:46;;;;;;;;;9.75;9.00;;;;;23.47;100.00;101832.03;5117731;27;45669;-66
2021/08/13 01:38:27;;;;;;;;;9.75;9.75;;;;;23.45;100.00;101834.78;5119060;27;45277;-66
2021/08/13 01:40:56;;;;;;;;;12.25;9.50;;;;;23.43;100.00;101834.00;5121784;27;45245;-67
2021/08/13 01:43:24;;;;;;;;;10.50;10.00;;;;;23.39;100.00;101837.75;5121513;27;45570;-66
2021/08/13 01:45:51;;;;;;;;;10.25;10.25;;;;;23.39;100.00;101836.91;5121163;27;45424;-66
2021/08/13 01:48:19;;;;;;;;;9.25;9.00;;;;;23.39;100.00;101831.56;5121328;27;45394;-66
2021/08/13 01:50:45;;;;;;;;;13.75;11.00;;;;;23.35;100.00;101833.53;5121804;27;45339;-66
2021/08/13 01:53:13;;;;;;;;;10.50;10.25;;;;;23.29;100.00;101831.16;5121358;27;46360;-66
2021/08/13 01:55:39;;;;;;;;;9.00;8.25;;;;;23.17;100.00;101811.31;5121290;27;45364;-66
2021/08/13 01:58:04;;;;;;;;;12.00;10.00;;;;;23.30;100.00;101848.88;5121468;27;45334;-66
2021/08/13 02:00:30;;;;;;;;;10.50;8.75;;;;;23.28;100.00;101839.22;5121101;27;45445;-66
2021/08/13 02:02:57;;;;;;;;;11.00;10.00;;;;;23.26;100.00;101836.63;5121250;27;45722;-66
2021/08/13 02:05:30;;;;;;;;;11.50;9.25;;;;;23.23;100.00;101842.13;5120401;27;45585;-66
2021/08/13 02:08:01;;;;;;;;;11.00;10.25;;;;;23.09;100.00;101832.16;5102558;27;45368;-66
2021/08/13 02:10:31;;;;;;;;;10.00;9.75;;;;;23.12;100.00;101837.34;5121266;27;45300;-66
2021/08/13 02:12:56;;;;;;;;;14.75;12.75;;;;;22.95;100.00;101829.31;5121062;27;45402;-66
2021/08/13 02:15:22;;;;;;;;;11.00;9.25;;;;;23.06;100.00;101858.06;5120847;27;45363;-66
2021/08/13 02:17:56;;;;;;;;;13.50;12.00;;;;;22.99;100.00;101848.66;5121015;27;45362;-66
2021/08/13 02:20:25;;;;;;;;;11.50;10.25;;;;;22.92;100.00;101830.31;5121470;27;45306;-66
2021/08/13 02:22:50;;;;;;;;;12.00;10.75;;;;;22.90;100.00;101828.66;5120698;27;46426;-66
2021/08/13 02:25:16;;;;;;;;;11.25;10.00;;;;;22.94;100.00;101851.56;5121038;27;45282;-66
2021/08/13 02:27:41;;;;;;;;;11.25;9.00;;;;;22.93;100.00;101844.50;5120957;27;45305;-66
2021/08/13 02:30:07;;;;;;;;;12.00;11.75;;;;;22.93;100.00;101849.81;5120869;27;45374;-67
2021/08/13 02:32:33;;;;;;;;;13.25;11.75;;;;;22.88;100.00;101842.06;5120320;27;46631;-65
2021/08/13 02:35:00;;;;;;;;;11.25;10.25;;;;;22.85;100.00;101839.53;5120559;27;45658;-66
2021/08/13 02:44:39;;;;;;;;;11.75;10.25;;;;;22.80;100.00;101838.84;5099846;27;45746;-66
2021/08/13 02:47:09;;;;;;;;;13.75;13.00;;;;;22.76;100.00;101841.75;5098882;27;45531;-66
2021/08/13 02:49:41;;;;;;;;;9.25;9.00;;;;;22.66;100.00;101851.13;5099010;27;45358;-66
2021/08/13 02:52:08;;;;;;;;;10.50;9.50;;;;;22.68;100.00;101868.75;5099828;27;45376;-66
2021/08/13 02:57:59;;;;;;;;;13.00;12.00;;;;;22.63;100.00;101857.41;5099576;27;45582;-66
2021/08/13 03:00:25;;;;;;;;;12.00;10.00;;;;;22.58;100.00;101856.78;5099929;27;45312;-66
2021/08/13 03:02:53;;;;;;;;;14.00;12.25;;;;;22.60;100.00;101865.53;5099858;27;45336;-66
2021/08/13 03:05:21;;;;;;;;;10.00;10.00;;;;;22.61;100.00;101870.81;5099703;27;45693;-66
2021/08/13 03:07:47;;;;;;;;;9.50;9.25;;;;;22.59;100.00;101878.00;5099341;27;45485;-66
2021/08/13 03:10:13;;;;;;;;;10.50;10.00;;;;;22.54;100.00;101871.16;5099374;27;45324;-66
2021/08/13 03:12:40;;;;;;;;;11.25;10.50;;;;;22.55;100.00;101870.22;5099744;27;45387;-66
2021/08/13 03:15:06;;;;;;;;;13.50;9.75;;;;;22.53;100.00;101869.44;5099532;27;45365;-66
2021/08/13 03:17:33;;;;;;;;;11.00;10.00;;;;;22.45;100.00;101852.97;5098764;27;45673;-66
2021/08/13 03:20:00;;;;;;;;;10.50;9.50;;;;;22.48;100.00;101860.81;5099440;27;45196;-66
2021/08/13 03:22:27;;;;;;;;;12.75;8.50;;;;;22.41;100.00;101859.38;5098961;27;45327;-66
2021/08/13 03:28:14;;;;;;;;;11.25;10.50;;;;;22.33;100.00;101849.06;5099143;27;45293;-67
2021/08/13 03:30:42;;;;;;;;;9.00;9.00;;;;;22.36;100.00;101869.34;5099281;27;45274;-67
2021/08/13 03:33:13;;;;;;;;;12.75;12.50;;;;;22.30;100.00;101860.72;5099494;27;45448;-67
2021/08/13 03:35:39;;;;;;;;;11.00;11.00;;;;;22.28;100.00;101859.91;5098711;27;45654;-66
2021/08/13 03:38:06;;;;;;;;;11.00;10.00;;;;;22.28;100.00;101864.38;5098845;27;45442;-66
2021/08/13 03:40:31;;;;;;;;;10.50;10.25;;;;;22.23;100.00;101856.59;5099420;27;45238;-66
2021/08/13 03:42:57;;;;;;;;;11.00;9.00;;;;;22.10;100.00;101827.94;5107726;27;45500;-67
2021/08/13 03:45:22;;;;;;;;;11.25;10.00;;;;;22.14;100.00;101851.69;5119330;27;47017;-67
2021/08/13 03:47:48;;;;;;;;;12.25;10.00;;;;;22.14;100.00;101857.00;5119346;27;45377;-67
2021/08/13 03:50:13;;;;;;;;;9.00;8.75;;;;;22.09;100.00;101859.00;5119415;27;45283;-66
2021/08/13 03:52:39;;;;;;;;;11.50;10.00;;;;;22.11;100.00;101862.47;5119531;27;45306;-67
2021/08/13 03:55:05;;;;;;;;;10.50;9.00;;;;;22.10;100.00;101857.22;5119158;27;47107;-66
2021/08/13 03:57:31;;;;;;;;;9.50;8.75;;;;;22.07;100.00;101854.69;5100703;27;45391;-66
2021/08/13 03:59:56;;;;;;;;;12.00;9.00;;;;;22.00;100.00;101854.06;5119412;27;45453;-67
2021/08/13 04:02:21;;;;;;;;;9.50;9.00;;;;;22.02;100.00;101868.16;5118218;27;45328;-66
2021/08/13 04:04:47;;;;;;;;;8.25;7.25;;;;;21.88;100.00;101851.94;5119032;27;46484;-67
2021/08/13 04:07:12;;;;;;;;;9.75;8.75;;;;;21.91;100.00;101868.63;5119378;27;45238;-67
2021/08/13 04:12:59;;;;;;;;;12.75;11.25;;;;;21.84;100.00;101882.25;5119213;27;45341;-67
2021/08/13 04:15:25;;;;;;;;;8.25;8.00;;;;;21.78;100.00;101879.88;5119159;27;45479;-66
2021/08/13 04:17:51;;;;;;;;;9.50;8.75;;;;;21.79;100.00;101876.28;5119021;27;45373;-67
2021/08/13 04:20:16;;;;;;;;;10.75;10.50;;;;;21.78;100.00;101893.16;5119026;27;45377;-67
2021/08/13 04:22:42;;;;;;;;;11.00;9.00;;;;;21.73;100.00;101885.38;5119430;27;45325;-66
2021/08/13 04:25:08;;;;;;;;;6.00;5.00;;;;;21.71;100.00;101890.75;5119103;27;45509;-66
2021/08/13 04:27:33;;;;;;;;;11.50;11.25;;;;;21.66;100.00;101884.75;5118700;27;45538;-66
2021/08/13 04:29:58;;;;;;;;;10.00;9.75;;;;;21.54;100.00;101869.34;5119022;27;45295;-66
2021/08/13 04:32:24;;;;;;;;;8.25;8.25;;;;;21.63;100.00;101884.91;5118993;27;45314;-66
2021/08/13 04:34:49;;;;;;;;;9.50;9.25;;;;;21.60;100.00;101885.03;5118566;27;46125;-66
2021/08/13 04:37:15;;;;;;;;;11.25;9.25;;;;;21.62;100.00;101883.16;5118505;27;45232;-66
2021/08/13 04:43:02;;;;;;;;;9.75;8.25;;;;;21.57;100.00;101893.13;5118717;27;45338;-66
2021/08/13 04:45:27;;;;;;;;;9.50;8.00;;;;;21.55;100.00;101894.13;5118333;27;47223;-66
2021/08/13 04:47:53;;;;;;;;;6.75;6.25;;;;;21.55;100.00;101887.03;5118611;27;45287;-67
2021/08/13 04:50:19;;;;;;;;;10.00;8.75;;;;;21.53;100.00;101882.69;5118562;27;45209;-67
2021/08/13 04:52:49;;;;;;;;;10.25;8.75;;;;;21.54;100.00;101889.75;5118727;27;45495;-67
2021/08/13 04:55:20;;;;;;;;;9.25;8.25;;;;;21.55;100.00;101891.47;5118333;27;47034;-68
2021/08/13 04:57:46;;;;;;;;;7.75;7.50;;;;;21.52;100.00;101895.13;5118210;27;45220;-67
2021/08/13 05:00:12;;;;;;;;;7.25;6.50;;;;;21.54;100.00;101903.91;5118522;27;45228;-66
2021/08/13 05:02:37;;;;;;;;;11.00;9.00;;;;;21.54;100.00;101905.69;5118589;27;45513;-67
2021/08/13 05:05:03;;;;;;;;;7.50;7.50;;;;;21.47;100.00;101898.88;5118242;27;47278;-67
2021/08/13 05:07:30;;;;;;;;;12.00;9.00;;;;;21.52;100.00;101907.56;5118440;27;45336;-67
2021/08/13 05:13:17;;;;;;;;;9.50;9.50;;;;;21.47;100.00;101912.16;5120022;27;45365;-67
2021/08/13 05:15:42;;;;;;;;;9.00;8.00;;;;;21.30;100.00;101888.97;5121593;27;46164;-66
2021/08/13 05:18:07;;;;;;;;;10.50;9.75;;;;;21.48;100.00;101927.19;5121258;27;45363;-67
2021/08/13 05:20:33;;;;;;;;;8.00;8.00;;;;;21.47;100.00;101925.44;5121876;27;45378;-67
2021/08/13 05:22:58;;;;;;;;;10.00;8.00;;;;;21.44;100.00;101920.25;5121810;27;45546;-66
2021/08/13 05:25:24;;;;;;;;;9.25;8.25;;;;;21.47;100.00;101941.41;5121916;27;45370;-67
2021/08/13 05:27:49;;;;;;;;;10.00;9.50;;;;;21.48;100.00;101943.13;5121468;27;45344;-67
2021/08/13 05:30:15;;;;;;;;;11.25;8.75;;;;;21.44;100.00;101936.22;5121830;27;45433;-67
2021/08/13 05:32:43;;;;;;;;;10.75;9.75;;;;;21.50;100.00;101955.44;5122047;27;45356;-67
2021/08/13 05:35:10;;;;;;;;;8.75;7.75;;;;;21.46;100.00;101945.84;5121555;27;45543;-67
2021/08/13 05:37:35;;;;;;;;;9.75;8.50;;;;;21.49;100.00;101952.81;5121591;27;45536;-67
2021/08/13 05:43:22;;;;;;;;;10.25;8.50;;;;;21.48;100.00;101957.28;5121100;27;45438;-68
2021/08/13 05:45:48;;;;;;;;;7.00;7.00;;;;;21.44;100.00;101952.16;5121314;27;45301;-67
2021/08/13 05:48:13;;;;;;;;;9.00;8.00;;;;;21.44;100.00;101944.19;5121457;27;45216;-67
2021/08/13 05:50:38;;;;;;;;;8.25;8.00;;;;;21.49;100.00;101955.47;5121413;27;45288;-67
2021/08/13 05:53:04;;;;;;;;;6.00;5.00;;;;;21.52;100.00;101964.22;5121716;27;45336;-68
2021/08/13 05:55:29;;;;;;;;;8.50;8.25;;;;;21.51;100.00;101959.84;5121258;27;46401;-67
2021/08/13 05:57:55;;;;;;;;;6.25;5.50;;;;;21.51;100.00;101943.88;5121038;27;45424;-67
2021/08/13 06:00:20;;;;;;;;;8.50;8.50;;;;;21.72;100.00;101968.69;5121474;27;45205;-68
2021/08/13 06:03:00;;;;;;;;;9.25;8.50;;;;;21.79;100.00;101964.03;5121348;27;45245;-69
2021/08/13 06:05:26;;;;;;;;;8.50;7.25;;;;;21.81;100.00;101948.88;5120863;27;46353;-66
2021/08/13 06:07:52;;;;;;;;;8.00;7.25;;;;;21.83;100.00;101941.69;5121326;27;45334;-67
2021/08/13 06:13:39;;;;;;;;;6.00;5.75;;;;;21.98;100.00;101949.03;5121224;27;45362;-66
2021/08/13 06:16:04;;;;;;;;;8.75;7.25;;;;;22.10;100.00;101968.94;5120955;27;46119;-66
2021/08/13 06:18:30;;;;;;;;;8.25;7.50;;;;;22.18;100.00;101965.03;5121214;27;45447;-66
2021/08/13 06:20:55;;;;;;;;;7.50;7.25;;;;;22.28;100.00;101979.66;5121115;27;45294;-66
2021/08/13 06:23:20;;;;;;;;;9.00;8.75;;;;;22.29;100.00;101968.06;5121310;27;45327;-66
2021/08/13 06:25:46;;;;;;;;;8.75;7.50;;;;;22.48;100.00;101983.25;5119706;27;45495;-66
2021/08/13 06:28:12;;;;;;;;;7.00;6.75;;;;;22.47;100.00;101973.53;5120884;27;45351;-66
2021/08/13 06:30:38;;;;;;;;;8.00;6.00;;;;;22.56;100.00;101978.44;5121127;27;45280;-66
2021/08/13 06:33:04;;;;;;;;;7.00;6.00;;;;;22.57;100.00;101985.50;5121158;27;45263;-66
2021/08/13 06:35:29;;;;;;;;;6.75;6.75;;;;;22.66;100.00;102001.06;5120495;27;45299;-66
2021/08/13 06:37:56;;;;;;;;;8.50;8.25;;;;;22.73;100.00;102005.19;5120908;27;45298;-65
2021/08/13 06:43:43;;;;;;;;;6.75;6.75;;;;;22.70;100.00;102000.00;5120092;27;45458;-66
2021/08/13 06:46:08;;;;;;;;;7.75;7.00;;;;;22.69;100.00;102000.06;5120253;27;46518;-68
2021/08/13 06:48:34;;;;;;;;;9.00;7.50;;;;;22.67;100.00;102008.13;5120199;27;45227;-67
2021/08/13 06:50:59;;;;;;;;;9.00;7.00;;;;;22.67;100.00;102004.59;5120414;27;45350;-67
2021/08/13 06:53:25;;;;;;;;;8.00;6.00;;;;;22.67;100.00;102005.47;5120479;27;45299;-67
2021/08/13 06:55:50;;;;;;;;;8.00;7.00;;;;;22.70;100.00;102009.78;5119995;27;47233;-67
2021/08/13 06:58:15;;;;;;;;;6.00;6.00;;;;;22.66;100.00;101994.88;5119988;27;45417;-67
2021/08/13 07:00:41;;;;;;;;;8.50;7.00;;;;;22.72;100.00;101991.94;5120140;27;45278;-67
2021/08/13 07:03:06;;;;;;;;;8.00;8.00;;;;;22.69;100.00;101986.75;5120493;27;45364;-67
2021/08/13 07:05:32;;;;;;;;;8.25;8.00;;;;;22.84;100.00;102004.72;5120063;27;46691;-67
2021/08/13 07:07:57;;;;;;;;;11.00;9.25;;;;;22.86;100.00;102003.75;5120166;27;45491;-67
2021/08/13 07:13:44;;;;;;;;;6.50;6.25;;;;;22.86;100.00;101997.53;5120119;27;45306;-66
2021/08/13 07:16:10;;;;;;;;;7.50;6.00;;;;;23.00;100.00;102021.72;5119896;27;45640;-67
2021/08/13 07:18:36;;;;;;;;;6.50;6.00;;;;;23.02;100.00;102022.53;5120012;27;45275;-67
2021/08/13 07:21:01;;;;;;;;;9.00;7.75;;;;;23.01;100.00;102006.63;5119852;27;45250;-67
2021/08/13 07:23:27;;;;;;;;;7.00;7.00;;;;;23.12;100.00;102030.97;5120032;27;45303;-66
2021/08/13 07:25:52;;;;;;;;;10.00;9.25;;;;;23.09;100.00;102031.13;5119689;27;46135;-67
2021/08/13 07:28:17;;;;;;;;;7.00;6.50;;;;;23.05;100.00;102022.38;5119605;27;45409;-67
2021/08/13 07:30:43;;;;;;;;;8.25;7.00;;;;;23.17;100.00;102028.97;5119801;27;45415;-67
2021/08/13 07:33:08;;;;;;;;;7.50;7.00;;;;;23.22;100.00;102029.59;5119807;27;45375;-67
2021/08/13 07:35:34;;;;;;;;;7.75;7.00;;;;;23.37;100.00;102042.22;5119485;27;46534;-67
2021/08/13 07:37:59;;;;;;;;;4.25;4.00;;;;;23.48;100.00;102044.38;5119658;27;45352;-67
2021/08/13 07:43:47;;;;;;;;;3.25;2.75;;;;;23.75;100.00;102059.06;5119391;27;45413;-67
2021/08/13 07:46:12;;;;;;;;;2.25;2.25;;;;;23.85;100.00;102048.84;5119429;27;45528;-66
2021/08/13 07:48:38;;;;;;;;;5.00;3.00;;;;;23.86;100.00;102039.91;5100874;27;45399;-67
2021/08/13 07:51:03;;;;;;;;;3.75;2.00;;;;;24.04;100.00;102064.81;5119743;27;45394;-67
2021/08/13 07:53:29;;;;;;;;;3.00;3.00;;;;;24.08;100.00;102064.56;5119524;27;45405;-67
2021/08/13 07:55:54;;;;;;;;;2.75;2.25;;;;;24.14;100.00;102061.59;5119014;27;46250;-67
2021/08/13 07:58:19;;;;;;;;;3.00;2.00;;;;;24.19;100.00;102064.03;5119583;27;45374;-68
2021/08/13 08:00:45;;;;;;;;;4.25;4.00;;;;;24.24;100.00;102066.50;5119279;27;45458;-67
2021/08/13 08:03:10;;;;;;;;;3.50;3.00;;;;;24.33;100.00;102077.59;5119016;27;45290;-67
2021/08/13 08:05:36;;;;;;;;;2.75;2.50;;;;;24.38;100.00;102072.00;5119043;27;47184;-68
2021/08/13 08:08:01;;;;;;;;;2.75;2.00;;;;;24.56;100.00;102089.75;5119071;27;45341;-67
2021/08/13 08:13:48;;;;;;;;;3.75;3.50;;;;;24.96;100.00;102098.38;5119196;27;45370;-68
2021/08/13 08:16:14;;;;;;;;;3.75;3.75;;;;;25.10;100.00;102087.84;5118744;27;46431;-68
2021/08/13 08:18:39;;;;;;;;;4.25;3.00;;;;;25.38;100.00;102099.72;5119333;27;45400;-68
2021/08/13 08:21:04;;;;;;;;;3.00;3.00;;;;;25.55;100.00;102097.84;5119192;27;45373;-67
2021/08/13 08:23:30;;;;;;;;;4.75;3.50;;;;;25.73;100.00;102108.50;5119215;27;45399;-68
2021/08/13 08:25:58;;;;;;;;;4.25;3.00;;;;;25.83;100.00;102094.53;5119031;27;46086;-67
2021/08/13 08:28:23;;;;;;;;;3.00;3.00;;;;;25.97;100.00;102103.56;5118902;27;45299;-68
2021/08/13 08:30:49;;;;;;;;;3.25;2.75;;;;;26.04;100.00;102089.75;5119105;27;45280;-67
2021/08/13 08:33:14;;;;;;;;;3.25;2.75;;;;;26.19;100.00;102109.41;5119281;27;45416;-68
2021/08/13 08:35:40;;;;;;;;;3.75;3.00;;;;;26.32;100.00;102110.44;5118890;27;45424;-68
2021/08/13 08:38:05;;;;;;;;;2.75;2.25;;;;;26.33;100.00;102098.78;5118825;27;45449;-67
2021/08/13 08:43:52;;;;;;;;;2.25;1.50;;;;;26.37;100.00;102092.31;5118600;27;45332;-67
2021/08/13 08:46:19;;;;;;;;;4.00;3.25;;;;;26.46;100.00;102097.09;5118728;27;45306;-67
2021/08/13 08:48:49;;;;;;;;;5.50;3.00;;;;;26.60;100.00;102103.47;5117699;27;45432;-67
2021/08/13 08:51:17;;;;;;;;;2.75;1.75;;;;;26.71;100.00;102101.88;5100162;27;45351;-67
2021/08/13 08:53:48;;;;;;;;;4.00;2.00;;;;;26.81;100.00;102086.97;5118692;27;45303;-68
2021/08/13 08:56:16;;;;;;;;;3.00;3.00;;;;;26.99;100.00;102085.00;5118503;27;45649;-67
2021/08/13 08:58:45;;;;;;;;;3.00;3.00;;;;;27.18;100.00;102089.22;5099829;27;45603;-68
2021/08/13 09:01:13;;;;;;;;;3.75;3.00;;;;;27.38;100.00;102089.66;5118566;27;45400;-67
2021/08/13 09:03:41;;;;;;;;;3.25;2.00;;;;;27.56;100.00;102073.34;5118860;27;45338;-67
2021/08/13 09:06:06;;;;;;;;;2.75;1.75;;;;;27.79;100.00;102066.53;5118331;27;46091;-68
2021/08/13 09:08:32;;;;;;;;;3.00;2.00;;;;;28.11;100.00;102086.75;5118351;27;45485;-67
2021/08/13 09:10:59;;;;;;;;;4.50;3.00;;;;;28.22;100.00;102076.13;5099777;27;45274;-67
2021/08/13 09:13:24;;;;;;;;;6.25;4.50;;;;;28.37;100.00;102074.28;5118336;27;45273;-67
2021/08/13 09:15:52;;;;;;;;;3.00;3.00;;;;;28.58;100.00;102096.16;5117774;27;46210;-66
2021/08/13 09:18:21;;;;;;;;;2.75;2.75;;;;;28.78;100.00;102097.47;5117975;27;45389;-66
2021/08/13 09:20:54;;;;;;;;;2.00;2.00;;;;;28.96;100.00;102094.34;5118103;27;45443;-66
2021/08/13 09:30:19;;;;;;;;;2.25;2.00;;;;;30.01;100.00;102087.69;5117896;27;45573;-67
2021/08/13 09:33:07;;;;;;;;;3.50;2.25;;;;;30.34;100.00;102081.63;5117850;27;45560;-67
2021/08/13 09:35:40;;;;;;;;;3.00;2.75;;;;;30.66;100.00;102074.63;5118279;27;45409;-67
2021/08/13 09:38:13;;;;;;;;;3.00;2.50;;;;;31.06;100.00;102087.69;5117891;27;45690;-67
2021/08/13 09:40:41;;;;;;;;;3.00;3.00;;;;;31.36;99.79;102082.56;5117938;27;45522;-68
2021/08/13 09:43:07;;;;;;;;;3.75;3.00;;;;;31.62;97.34;102084.97;5117417;27;45405;-66
2021/08/13 09:45:33;;;;;;;;;3.00;3.00;;;;;31.69;96.50;102078.97;5117854;27;45305;-67
2021/08/13 09:47:59;;;;;;;;;3.00;3.00;;;;;31.81;96.67;102085.22;5117532;27;45595;-66
2021/08/13 09:50:39;;;;;;;;;2.00;2.00;;;;;32.06;95.62;102086.72;5117589;27;45169;-66
2021/08/13 09:53:13;;;;;;;;;3.25;2.25;;;;;32.49;94.07;102088.53;5117948;27;45370;-66
2021/08/13 09:55:39;;;;;;;;;3.50;3.50;;;;;33.03;91.26;102082.88;5117643;27;45505;-66
2021/08/13 09:58:07;;;;;;;;;3.00;3.00;;;;;33.55;89.53;102072.00;5117491;27;46340;-66
2021/08/13 10:00:43;;;;;;;;;3.00;3.00;;;;;34.18;87.15;102086.94;5120843;27;45466;-66
2021/08/13 10:03:10;;;;;;;;;4.00;4.00;;;;;34.92;79.89;102079.00;5121437;27;45408;-67
2021/08/13 10:05:39;;;;;;;;;6.75;6.00;;;;;35.42;81.99;102075.09;5102724;27;45281;-67
2021/08/13 10:08:05;;;;;;;;;4.00;4.00;;;;;35.93;80.76;102076.34;5102927;27;46145;-67
2021/08/13 10:10:41;;;;;;;;;5.25;4.50;;;;;36.12;79.36;102078.91;5121053;27;45439;-67
2021/08/13 10:13:11;;;;;;;;;3.75;3.75;;;;;36.00;79.91;102077.44;5120261;27;45385;-68
2021/08/13 10:15:44;;;;;;;;;3.75;3.75;;;;;35.88;79.34;102068.66;5121447;27;45222;-68
2021/08/13 10:18:12;;;;;;;;;5.25;4.25;;;;;35.80;79.25;102072.13;5120788;27;47467;-66
2021/08/13 10:20:43;;;;;;;;;3.00;2.50;;;;;35.69;77.61;102068.75;5120945;27;45274;-66
2021/08/13 10:23:15;;;;;;;;;5.50;4.50;;;;;35.84;75.73;102076.28;5120923;27;45220;-65
2021/08/13 10:25:41;;;;;;;;;5.00;5.00;;;;;36.24;76.58;102065.94;5121235;27;45270;-66
2021/08/13 10:28:06;;;;;;;;;3.75;3.50;;;;;36.95;73.21;102071.25;5120833;27;46367;-68
2021/08/13 10:30:32;;;;;;;;;4.75;4.50;;;;;37.66;69.69;102081.75;5120953;27;45509;-67
2021/08/13 10:32:59;;;;;;;;;4.75;4.75;;;;;38.33;69.43;102071.66;5120967;27;45306;-66
2021/08/13 10:35:29;;;;;;;;;4.50;4.50;;;;;39.17;69.76;102082.09;5120867;27;45386;-66
2021/08/13 10:37:57;;;;;;;;;5.00;5.00;;;;;39.76;65.92;102079.72;5120360;27;46495;-69
2021/08/13 10:40:24;;;;;;;;;5.50;4.50;;;;;40.50;64.43;102084.66;5120834;27;45544;-67
2021/08/13 10:42:51;;;;;;;;;6.25;6.00;;;;;41.30;62.26;102087.56;5120802;27;45342;-67
2021/08/13 10:45:25;;;;;;;;;4.50;4.00;;;;;42.22;59.67;102089.66;5120869;27;45319;-67
2021/08/13 10:48:14;;;;;;;;;6.25;4.75;;;;;43.12;58.28;102081.44;5120429;27;45306;-67
2021/08/13 10:50:42;;;;;;;;;5.50;4.50;;;;;43.85;53.26;102085.31;5120635;27;45705;-67
2021/08/13 10:53:27;;;;;;;;;6.25;5.00;;;;;44.10;50.93;102082.81;5120299;27;45317;-67
2021/08/13 10:55:56;;;;;;;;;6.75;5.75;;;;;44.39;51.33;102089.81;5120132;27;45416;-66
2021/08/13 10:58:37;;;;;;;;;4.25;4.00;;;;;44.86;48.68;102079.63;5120396;27;45674;-66
2021/08/13 11:01:09;;;;;;;;;7.25;7.00;;;;;45.07;40.11;102087.59;5120488;27;45408;-67
2021/08/13 11:03:42;;;;;;;;;7.50;6.75;;;;;45.29;43.58;102079.06;5120221;27;45369;-65
2021/08/13 11:06:08;;;;;;;;;6.75;5.75;;;;;45.79;46.18;102075.38;5120646;27;45272;-66
2021/08/13 11:11:55;;;;;;;;;6.75;5.75;;;;;46.04;37.53;102082.88;5119414;27;45361;-66
2021/08/13 11:14:24;;;;;;;;;6.25;5.25;;;;;46.09;40.55;102075.59;5120482;27;45376;-66
2021/08/13 11:16:54;;;;;;;;;5.50;4.75;;;;;46.55;40.49;102073.50;5120317;27;45443;-66
2021/08/13 11:19:20;;;;;;;;;6.00;6.00;;;;;47.09;41.27;102072.69;5119604;27;47456;-66
2021/08/13 11:21:54;;;;;;;;;7.25;6.25;;;;;47.78;39.80;102064.94;5120156;27;45281;-68
2021/08/13 11:28:20;;;;;;;;;6.25;5.25;;;;;48.07;37.04;102077.91;5119973;27;45419;-67
2021/08/13 11:30:46;;;;;;;;;5.75;5.00;;;;;47.75;37.73;102059.84;5119670;27;47129;-66
2021/08/13 11:33:30;;;;;;;;;6.75;6.50;;;;;48.66;36.69;102069.59;5119678;27;45511;-67
2021/08/13 11:35:58;;;;;;;;;6.50;6.00;;;;;49.46;35.15;102052.16;5119956;27;45444;-67
2021/08/13 11:45:08;;;;;;;;;3.50;3.00;;;;;50.18;32.42;102069.81;5119124;27;45550;-67
2021/08/13 11:47:35;;;;;;;;;5.50;5.25;;;;;49.87;31.85;102042.63;5119756;27;45455;-68
2021/08/13 11:50:08;;;;;;;;;8.00;7.25;;;;;49.82;31.15;102062.84;5119553;27;45569;-67
2021/08/13 11:52:36;;;;;;;;;6.50;6.00;;;;;49.85;30.77;102044.81;5119387;27;47915;-67
2021/08/13 11:58:24;;;;;;;;;6.00;5.25;;;;;50.69;30.41;102053.06;5119261;27;45437;-67
2021/08/13 12:01:00;;;;;;;;;5.00;5.00;;;;;50.85;29.21;102041.03;5119774;27;45369;-67
2021/08/13 12:03:26;;;;;;;;;6.50;5.75;;;;;50.59;29.79;102044.56;5119220;27;46625;-69
2021/08/13 12:05:51;;;;;;;;;5.25;4.75;;;;;50.22;30.99;102039.56;5119149;27;45451;-68
2021/08/13 12:08:17;;;;;;;;;6.50;5.50;;;;;49.87;31.23;102046.25;5119587;27;45349;-67
2021/08/13 12:14:10;;;;;;;;;7.25;6.25;;;;;49.41;32.66;102027.06;5118985;27;45402;-68
2021/08/13 12:16:36;;;;;;;;;7.00;6.50;;;;;49.42;31.72;102020.44;5118883;27;45253;-68
2021/08/13 12:19:08;;;;;;;;;7.00;7.00;;;;;49.36;30.36;102027.84;5118828;27;45293;-67
2021/08/13 12:21:34;;;;;;;;;6.00;6.00;;;;;49.35;30.47;102028.94;5119285;27;45285;-67
2021/08/13 12:23:59;;;;;;;;;8.25;6.50;;;;;49.60;29.51;102022.97;5117973;27;45357;-67
2021/08/13 12:26:26;;;;;;;;;5.25;5.25;;;;;49.90;28.35;102031.84;5119148;27;45237;-67
2021/08/13 12:28:51;;;;;;;;;6.00;5.25;;;;;50.07;27.16;102019.91;5118809;27;45309;-67
2021/08/13 12:31:16;;;;;;;;;6.75;6.75;;;;;50.56;27.10;102029.25;5118859;27;45437;-67
2021/08/13 12:33:52;;;;;;;;;5.75;5.75;;;;;50.77;26.44;102022.88;5119044;27;45359;-67
2021/08/13 12:36:24;;;;;;;;;6.50;5.75;;;;;50.83;25.65;102027.41;5118987;27;45372;-67